createdAt,value
2023-04-18T00:00:01.344Z,17.08
2023-04-18T00:02:38.481Z,16.67
2023-04-18T00:05:06.490Z,17.65
2023-04-18T00:07:33.684Z,17.73
2023-04-18T00:10:00.225Z,16.90
2023-04-18T00:12:28.123Z,17.02
2023-04-18T00:14:54.660Z,15.98
2023-04-18T00:17:21.185Z,18.25
2023-04-18T00:19:47.810Z,15.38
2023-04-18T00:22:17.448Z,15.07
2023-04-18T00:24:43.930Z,17.67
2023-04-18T00:27:12.892Z,15.00
2023-04-18T00:29:40.786Z,14.48
2023-04-18T00:32:07.368Z,15.27
2023-04-18T00:34:33.937Z,17.50
2023-04-18T00:37:00.504Z,17.60
2023-04-18T00:39:27.196Z,17.70
2023-04-18T00:41:53.857Z,17.25
2023-04-18T00:44:20.579Z,13.70
2023-04-18T00:46:50.146Z,20.08
2023-04-18T00:49:21.281Z,16.45
2023-04-18T00:51:50.599Z,18.40
2023-04-18T00:54:18.376Z,18.48
2023-04-18T00:56:45.502Z,17.23
2023-04-18T00:59:13.163Z,19.95
2023-04-18T01:01:39.849Z,19.27
2023-04-18T01:04:08.260Z,21.45
2023-04-18T01:06:35.783Z,23.52
2023-04-18T01:09:02.439Z,20.25
2023-04-18T01:11:29.015Z,21.38
2023-04-18T01:13:59.452Z,21.38
2023-04-18T01:16:30.581Z,21.15
2023-04-18T01:18:57.120Z,22.33
2023-04-18T01:21:25.061Z,24.38
2023-04-18T01:23:53.350Z,24.58
2023-04-18T01:26:21.382Z,21.02
2023-04-18T01:28:50.787Z,23.25
2023-04-18T01:31:23.125Z,25.75
2023-04-18T01:33:49.766Z,30.77
2023-04-18T01:36:16.347Z,30.13
2023-04-18T01:38:42.864Z,28.60
2023-04-18T01:41:09.373Z,28.90
2023-04-18T01:43:37.263Z,28.10
2023-04-18T01:46:03.940Z,30.63
2023-04-18T01:48:30.489Z,27.20
2023-04-18T01:50:56.994Z,29.63
2023-04-18T01:53:23.521Z,28.15
2023-04-18T01:55:50.251Z,34.65
2023-04-18T01:58:16.952Z,25.85
2023-04-18T02:00:49.727Z,29.05
2023-04-18T02:03:20.374Z,28.30
2023-04-18T02:05:49.689Z,29.52
2023-04-18T02:08:20.661Z,26.20
2023-04-18T02:10:53.202Z,25.92
2023-04-18T02:13:20.536Z,27.48
2023-04-18T02:15:50.641Z,30.65
2023-04-18T02:18:20.790Z,29.38
2023-04-18T02:20:47.366Z,28.08
2023-04-18T02:23:13.840Z,25.25
2023-04-18T02:25:40.439Z,25.55
2023-04-18T02:28:07.024Z,27.95
2023-04-18T02:30:33.611Z,28.40
2023-04-18T02:33:03.531Z,29.98
2023-04-18T02:35:30.204Z,27.60
2023-04-18T02:37:56.657Z,27.90
2023-04-18T02:40:23.190Z,29.95
2023-04-18T02:42:49.761Z,28.75
2023-04-18T02:45:16.377Z,29.55
2023-04-18T02:47:53.538Z,28.23
2023-04-18T02:50:22.975Z,28.02
2023-04-18T02:52:50.049Z,32.75
2023-04-18T02:55:18.813Z,28.48
2023-04-18T02:57:45.812Z,29.77
2023-04-18T03:00:44.350Z,29.90
2023-04-18T03:03:29.604Z,27.65
2023-04-18T03:06:14.016Z,29.15
2023-04-18T03:08:40.518Z,27.23
2023-04-18T03:11:08.036Z,28.38
2023-04-18T03:13:35.100Z,29.10
2023-04-18T03:16:02.136Z,27.85
2023-04-18T03:18:29.893Z,24.60
2023-04-18T03:20:59.772Z,26.95
2023-04-18T03:23:29.436Z,28.30
2023-04-18T03:25:56.442Z,25.75
2023-04-18T03:28:23.064Z,26.70
2023-04-18T03:30:49.828Z,26.17
2023-04-18T03:33:16.487Z,27.60
2023-04-18T03:35:43.985Z,25.83
2023-04-18T03:38:10.491Z,26.42
2023-04-18T03:40:40.518Z,26.50
2023-04-18T03:43:14.188Z,23.95
2023-04-18T03:45:41.346Z,24.98
2023-04-18T03:48:07.782Z,25.35
2023-04-18T03:50:38.918Z,22.40
2023-04-18T03:53:08.960Z,24.95
2023-04-18T03:55:36.514Z,25.42
2023-04-18T03:58:04.480Z,24.17
2023-04-18T04:00:31.107Z,24.10
2023-04-18T04:03:03.934Z,21.05
2023-04-18T04:05:30.732Z,21.13
2023-04-18T04:07:57.562Z,19.88
2023-04-18T04:10:24.016Z,20.92
2023-04-18T04:12:51.108Z,20.45
2023-04-18T04:15:19.269Z,17.77
2023-04-18T04:17:51.487Z,21.30
2023-04-18T04:20:18.667Z,20.00
2023-04-18T04:22:45.229Z,20.45
2023-04-18T04:25:11.804Z,17.30
2023-04-18T04:27:40.931Z,18.67
2023-04-18T04:30:11.292Z,17.63
2023-04-18T04:35:07.917Z,17.08
2023-04-18T04:37:34.764Z,18.27
2023-04-18T04:42:55.288Z,21.55
2023-04-18T04:45:28.168Z,18.58
2023-04-18T04:47:55.938Z,17.95
2023-04-18T04:50:22.580Z,19.58
2023-04-18T04:52:48.978Z,19.52
2023-04-18T04:55:15.530Z,19.70
2023-04-18T04:57:43.011Z,19.52
2023-04-18T05:00:24.652Z,18.80
2023-04-18T05:02:52.257Z,19.95
2023-04-18T05:05:20.100Z,19.90
2023-04-18T05:07:46.559Z,20.88
2023-04-18T05:10:12.993Z,19.05
2023-04-18T05:12:39.439Z,20.45
2023-04-18T05:15:06.914Z,18.83
2023-04-18T05:17:33.387Z,18.02
2023-04-18T05:19:59.905Z,16.80
2023-04-18T05:22:27.637Z,17.77
2023-04-18T05:24:54.047Z,18.48
2023-04-18T05:27:20.510Z,19.23
2023-04-18T05:29:46.935Z,18.20
2023-04-18T05:32:13.458Z,18.58
2023-04-18T05:34:39.887Z,19.20
2023-04-18T05:37:06.272Z,17.52
2023-04-18T05:39:34.104Z,16.30
2023-04-18T05:42:00.548Z,16.52
2023-04-18T05:44:26.965Z,16.17
2023-04-18T05:46:53.439Z,17.08
2023-04-18T05:49:19.986Z,18.13
2023-04-18T05:51:46.947Z,16.08
2023-04-18T05:54:13.702Z,19.40
2023-04-18T05:56:41.787Z,14.38
2023-04-18T05:59:08.267Z,15.50
2023-04-18T06:01:34.757Z,16.70
2023-04-18T06:04:01.332Z,14.80
2023-04-18T06:06:27.943Z,16.05
2023-04-18T06:08:54.338Z,16.15
2023-04-18T06:11:20.774Z,14.82
2023-04-18T06:13:48.599Z,17.55
2023-04-18T06:16:15.121Z,14.85
2023-04-18T06:18:41.635Z,14.20
2023-04-18T06:21:08.153Z,15.18
2023-04-18T06:23:34.573Z,16.05
2023-04-18T06:26:01.065Z,16.10
2023-04-18T06:28:27.531Z,14.82
2023-04-18T06:30:55.241Z,16.15
2023-04-18T06:33:21.701Z,16.13
2023-04-18T06:35:48.231Z,16.85
2023-04-18T06:38:14.836Z,16.45
2023-04-18T06:40:41.274Z,13.13
2023-04-18T06:43:07.754Z,15.80
2023-04-18T06:45:34.915Z,14.57
2023-04-18T06:48:04.529Z,14.93
2023-04-18T06:50:31.327Z,12.77
2023-04-18T06:52:57.810Z,14.40
2023-04-18T06:55:24.236Z,11.48
2023-04-18T06:57:50.660Z,12.02
2023-04-18T07:00:17.458Z,12.73
2023-04-18T07:02:44.102Z,12.98
2023-04-18T07:05:12.049Z,11.63
2023-04-18T07:07:39.022Z,11.30
2023-04-18T07:10:06.992Z,13.18
2023-04-18T07:12:33.389Z,12.48
2023-04-18T07:14:59.770Z,12.73
2023-04-18T07:17:26.178Z,12.43
2023-04-18T07:19:52.591Z,12.40
2023-04-18T07:22:20.315Z,13.15
2023-04-18T07:24:46.703Z,13.32
2023-04-18T07:27:13.090Z,14.27
2023-04-18T07:29:39.497Z,12.32
2023-04-18T07:32:08.104Z,13.60
2023-04-18T07:34:34.946Z,13.15
2023-04-18T07:37:01.513Z,11.70
2023-04-18T07:39:29.353Z,14.63
2023-04-18T07:41:55.755Z,12.27
2023-04-18T07:44:22.209Z,13.57
2023-04-18T07:46:48.683Z,13.75
2023-04-18T07:49:15.293Z,13.75
2023-04-18T07:51:41.930Z,14.05
2023-04-18T07:54:08.286Z,12.63
2023-04-18T07:56:36.016Z,15.80
2023-04-18T07:59:02.414Z,13.00
2023-04-18T08:01:28.906Z,14.18
2023-04-18T08:03:55.465Z,13.93
2023-04-18T08:06:22.204Z,14.80
2023-04-18T08:08:48.608Z,12.65
2023-04-18T08:11:15.011Z,12.25
2023-04-18T08:13:42.790Z,13.10
2023-04-18T08:16:09.286Z,14.85
2023-04-18T08:18:35.721Z,12.75
2023-04-18T08:21:02.192Z,12.27
2023-04-18T08:23:28.601Z,13.63
2023-04-18T08:25:55.097Z,13.30
2023-04-18T08:28:21.460Z,11.77
2023-04-18T08:30:49.302Z,11.73
2023-04-18T08:33:16.071Z,11.45
2023-04-18T08:35:42.541Z,13.27
2023-04-18T08:38:09.132Z,12.02
2023-04-18T08:40:36.757Z,11.63
2023-04-18T08:43:06.706Z,11.80
2023-04-18T08:45:33.138Z,11.65
2023-04-18T08:50:34.631Z,11.82
2023-04-18T08:53:01.400Z,12.57
2023-04-18T08:55:28.104Z,12.00
2023-04-18T08:57:55.208Z,16.83
2023-04-18T09:00:22.275Z,14.52
2023-04-18T09:02:51.417Z,14.55
2023-04-18T09:05:20.257Z,13.82
2023-04-18T09:07:53.647Z,11.70
2023-04-18T09:10:28.361Z,13.43
2023-04-18T09:12:56.323Z,12.93
2023-04-18T09:15:30.049Z,12.65
2023-04-18T09:18:10.294Z,13.68
2023-04-18T09:20:38.626Z,13.70
2023-04-18T09:23:11.673Z,13.43
2023-04-18T09:25:50.117Z,13.77
2023-04-18T09:28:27.084Z,13.60
2023-04-18T09:30:56.439Z,14.45
2023-04-18T09:33:26.017Z,14.35
2023-04-18T09:35:52.556Z,13.07
2023-04-18T09:38:20.661Z,15.13
2023-04-18T09:40:49.359Z,16.48
2023-04-18T09:43:21.078Z,14.07
2023-04-18T09:45:50.202Z,13.50
2023-04-18T09:48:22.540Z,14.65
2023-04-18T09:50:51.922Z,15.02
2023-04-18T09:53:25.191Z,15.02
2023-04-18T09:55:54.966Z,15.35
2023-04-18T09:58:25.687Z,16.25
2023-04-18T10:00:54.093Z,15.95
2023-04-18T10:03:24.040Z,12.15
2023-04-18T10:05:51.431Z,12.38
2023-04-18T10:08:22.578Z,16.35
2023-04-18T10:10:49.249Z,11.95
2023-04-18T10:13:18.774Z,14.82
2023-04-18T10:15:52.234Z,11.85
2023-04-18T10:18:23.028Z,12.07
2023-04-18T10:20:50.755Z,12.20
2023-04-18T10:23:38.885Z,11.65
2023-04-18T10:26:13.063Z,13.43
2023-04-18T10:28:55.208Z,14.50
2023-04-18T10:31:22.931Z,13.80
2023-04-18T10:34:03.216Z,13.40
2023-04-18T10:36:31.716Z,13.65
2023-04-18T10:39:19.218Z,13.25
2023-04-18T10:41:55.713Z,14.52
2023-04-18T10:44:23.234Z,14.27
2023-04-18T10:47:20.632Z,13.88
2023-04-18T10:50:01.266Z,13.85
2023-04-18T10:52:28.341Z,13.18
2023-04-18T10:55:23.266Z,15.07
2023-04-18T11:00:23.650Z,13.82
2023-04-18T11:02:55.196Z,14.52
2023-04-18T11:05:24.627Z,13.88
2023-04-18T11:07:51.471Z,16.25
2023-04-18T11:10:23.111Z,15.55
2023-04-18T11:12:55.829Z,15.20
2023-04-18T11:15:24.316Z,13.68
2023-04-18T11:17:59.679Z,14.98
2023-04-18T11:20:27.012Z,17.45
2023-04-18T11:22:54.997Z,17.55
2023-04-18T11:25:25.416Z,14.68
2023-04-18T11:27:52.101Z,16.98
2023-04-18T11:30:21.076Z,14.75
2023-04-18T11:32:53.610Z,15.07
2023-04-18T11:35:20.176Z,16.77
2023-04-18T11:37:52.452Z,15.55
2023-04-18T11:40:20.967Z,13.80
2023-04-18T11:42:49.019Z,16.55
2023-04-18T11:45:17.542Z,14.43
2023-04-18T11:47:47.485Z,15.05
2023-04-18T11:50:22.708Z,13.73
2023-04-18T11:52:52.371Z,17.73
2023-04-18T11:55:20.724Z,14.73
2023-04-18T11:57:52.879Z,15.85
2023-04-18T12:00:32.073Z,14.27
2023-04-18T12:02:59.718Z,14.95
2023-04-18T12:05:28.399Z,15.65
2023-04-18T12:07:55.297Z,13.15
2023-04-18T12:10:27.842Z,15.80
2023-04-18T12:12:57.293Z,15.68
2023-04-18T12:15:24.886Z,18.75
2023-04-18T12:17:51.505Z,17.02
2023-04-18T12:20:20.731Z,18.42
2023-04-18T12:22:49.877Z,16.60
2023-04-18T12:25:24.951Z,16.27
2023-04-18T12:28:01.635Z,19.13
2023-04-18T12:30:31.329Z,16.48
2023-04-18T12:33:03.685Z,15.98
2023-04-18T12:35:32.591Z,17.95
2023-04-18T12:38:03.141Z,17.95
2023-04-18T12:40:30.291Z,17.33
2023-04-18T12:42:58.300Z,17.52
2023-04-18T12:45:25.277Z,18.55
2023-04-18T12:47:52.663Z,16.52
2023-04-18T12:50:23.779Z,16.45
2023-04-18T12:52:52.654Z,17.27
2023-04-18T12:55:24.264Z,19.58
2023-04-18T12:57:52.440Z,19.40
2023-04-18T13:00:30.130Z,17.33
2023-04-18T13:03:02.447Z,17.75
2023-04-18T13:05:33.948Z,17.15
2023-04-18T13:08:16.060Z,18.88
2023-04-18T13:10:55.033Z,16.38
2023-04-18T13:13:30.582Z,18.08
2023-04-18T13:16:00.645Z,17.50
2023-04-18T13:18:33.519Z,15.65
2023-04-18T13:21:08.178Z,15.38
2023-04-18T13:23:35.176Z,16.42
2023-04-18T13:26:01.858Z,17.40
2023-04-18T13:28:28.657Z,15.38
2023-04-18T13:30:55.348Z,18.70
2023-04-18T13:33:23.193Z,16.55
2023-04-18T13:35:51.826Z,18.70
2023-04-18T13:38:23.347Z,17.50
2023-04-18T13:41:01.234Z,16.40
2023-04-18T13:43:39.641Z,16.27
2023-04-18T13:46:07.892Z,16.17
2023-04-18T13:48:40.520Z,16.13
2023-04-18T13:51:11.485Z,16.38
2023-04-18T13:53:55.599Z,17.92
2023-04-18T13:56:22.103Z,18.15
2023-04-18T13:58:50.358Z,17.83
2023-04-18T14:01:17.924Z,18.55
2023-04-18T14:03:50.185Z,18.92
2023-04-18T14:06:22.992Z,15.77
2023-04-18T14:08:52.580Z,20.98
2023-04-18T14:11:20.984Z,19.17
2023-04-18T14:13:51.685Z,18.63
2023-04-18T14:16:22.739Z,18.95
2023-04-18T14:18:50.945Z,19.15
2023-04-18T14:21:20.703Z,20.25
2023-04-18T14:23:53.621Z,20.35
2023-04-18T14:26:28.453Z,21.05
2023-04-18T14:28:55.183Z,17.85
2023-04-18T14:31:21.961Z,21.80
2023-04-18T14:33:51.621Z,20.20
2023-04-18T14:36:24.354Z,22.17
2023-04-18T14:38:56.505Z,21.10
2023-04-18T14:41:22.986Z,18.33
2023-04-18T14:43:51.598Z,19.75
2023-04-18T14:46:23.716Z,16.83
2023-04-18T14:48:51.454Z,16.65
2023-04-18T14:51:17.966Z,15.45
2023-04-18T14:53:44.716Z,18.27
2023-04-18T14:56:11.678Z,18.77
2023-04-18T14:58:38.239Z,14.57
2023-04-18T15:01:05.091Z,17.88
2023-04-18T15:03:31.767Z,16.63
2023-04-18T15:05:59.748Z,16.95
2023-04-18T15:08:26.299Z,17.92
2023-04-18T15:10:52.775Z,17.30
2023-04-18T15:13:19.226Z,20.55
2023-04-18T15:15:51.455Z,17.50
2023-04-18T15:18:17.849Z,21.02
2023-04-18T15:20:44.453Z,17.10
2023-04-18T15:23:12.401Z,17.33
2023-04-18T15:25:38.959Z,18.60
2023-04-18T15:28:05.730Z,19.88
2023-04-18T15:30:32.945Z,17.55
2023-04-18T15:32:59.453Z,16.98
2023-04-18T15:35:26.121Z,19.58
2023-04-18T15:37:52.584Z,19.17
2023-04-18T15:40:20.381Z,18.88
2023-04-18T15:42:46.821Z,18.65
2023-04-18T15:45:13.269Z,18.00
2023-04-18T15:47:39.723Z,17.15
2023-04-18T15:50:07.748Z,18.67
2023-04-18T15:52:34.367Z,18.77
2023-04-18T15:55:00.816Z,18.60
2023-04-18T15:57:28.618Z,16.67
2023-04-18T15:59:55.156Z,16.35
2023-04-18T16:02:21.671Z,17.50
2023-04-18T16:04:48.193Z,18.83
2023-04-18T16:07:14.607Z,17.42
2023-04-18T16:09:41.096Z,17.70
2023-04-18T16:12:07.558Z,17.90
2023-04-18T16:14:35.303Z,17.55
2023-04-18T16:17:01.708Z,18.45
2023-04-18T16:19:28.225Z,16.45
2023-04-18T16:21:54.774Z,18.08
2023-04-18T16:24:21.244Z,19.77
2023-04-18T16:26:47.731Z,17.40
2023-04-18T16:29:14.299Z,18.27
2023-04-18T16:31:42.099Z,18.15
2023-04-18T16:34:08.658Z,20.10
2023-04-18T16:36:35.066Z,18.75
2023-04-18T16:39:01.574Z,21.33
2023-04-18T16:41:27.995Z,18.40
2023-04-18T16:43:54.464Z,19.35
2023-04-18T16:46:20.884Z,18.20
2023-04-18T16:48:49.867Z,21.08
2023-04-18T16:51:23.974Z,18.85
2023-04-18T16:53:50.614Z,20.88
2023-04-18T16:56:18.836Z,18.30
2023-04-18T16:58:45.449Z,18.45
2023-04-18T17:01:12.063Z,18.40
2023-04-18T17:03:46.121Z,18.60
2023-04-18T17:06:24.946Z,18.52
2023-04-18T17:08:54.030Z,18.88
2023-04-18T17:11:29.905Z,19.55
2023-04-18T17:13:59.479Z,21.38
2023-04-18T17:16:26.045Z,18.27
2023-04-18T17:18:52.590Z,21.20
2023-04-18T17:21:19.144Z,18.45
2023-04-18T17:23:46.949Z,18.30
2023-04-18T17:26:13.494Z,21.20
2023-04-18T17:28:39.884Z,20.00
2023-04-18T17:31:06.267Z,22.08
2023-04-18T17:33:32.705Z,20.58
2023-04-18T17:35:59.267Z,18.85
2023-04-18T17:38:25.699Z,20.88
2023-04-18T17:41:00.391Z,20.25
2023-04-18T17:43:26.998Z,21.60
2023-04-18T17:45:53.571Z,21.67
2023-04-18T17:48:20.081Z,23.33
2023-04-18T17:50:46.499Z,22.83
2023-04-18T17:53:12.943Z,20.10
2023-04-18T17:55:40.175Z,18.85
2023-04-18T17:58:08.020Z,21.15
2023-04-18T18:00:34.795Z,19.85
2023-04-18T18:03:01.339Z,21.80
2023-04-18T18:05:28.089Z,19.85
2023-04-18T18:07:54.543Z,20.13
2023-04-18T18:10:21.455Z,21.63
2023-04-18T18:12:48.014Z,21.42
2023-04-18T18:15:15.873Z,20.75
2023-04-18T18:17:42.373Z,20.38
2023-04-18T18:20:09.315Z,20.38
2023-04-18T18:22:36.067Z,20.70
2023-04-18T18:25:03.310Z,22.52
2023-04-18T18:27:29.803Z,22.02
2023-04-18T18:29:56.357Z,23.02
2023-04-18T18:32:24.184Z,24.38
2023-04-18T18:34:50.614Z,20.83
2023-04-18T18:37:17.363Z,22.25
2023-04-18T18:39:43.895Z,22.35
2023-04-18T18:42:10.341Z,22.88
2023-04-18T18:44:36.810Z,20.40
2023-04-18T18:47:03.405Z,22.65
2023-04-18T18:49:31.345Z,19.88
2023-04-18T18:51:57.851Z,25.08
2023-04-18T18:57:04.946Z,21.08
2023-04-18T18:59:31.607Z,22.95
2023-04-18T19:01:58.280Z,24.58
2023-04-18T19:04:24.946Z,24.02
2023-04-18T19:06:52.900Z,24.38
2023-04-18T19:09:19.451Z,25.67
2023-04-18T19:11:45.956Z,23.00
2023-04-18T19:14:12.399Z,25.33
2023-04-18T19:16:38.883Z,23.75
2023-04-18T19:19:05.394Z,24.42
2023-04-18T19:21:31.858Z,24.90
2023-04-18T19:23:59.666Z,21.70
2023-04-18T19:26:26.364Z,24.23
2023-04-18T19:28:52.805Z,22.55
2023-04-18T19:31:19.366Z,24.92
2023-04-18T19:33:45.967Z,21.95
2023-04-18T19:36:12.478Z,23.23
2023-04-18T19:38:38.939Z,24.65
2023-04-18T19:41:06.769Z,23.67
2023-04-18T19:43:33.239Z,24.50
2023-04-18T19:45:59.714Z,23.33
2023-04-18T19:48:26.236Z,26.00
2023-04-18T19:50:52.705Z,24.23
2023-04-18T19:53:19.195Z,25.17
2023-04-18T19:55:45.591Z,21.52
2023-04-18T19:58:32.791Z,22.27
2023-04-18T20:00:59.263Z,23.48
2023-04-18T20:03:25.903Z,24.70
2023-04-18T20:05:52.532Z,22.98
2023-04-18T20:08:18.969Z,22.77
2023-04-18T20:10:45.443Z,23.45
2023-04-18T20:13:13.212Z,25.52
2023-04-18T20:15:39.698Z,26.55
2023-04-18T20:18:06.263Z,25.83
2023-04-18T20:20:32.789Z,26.73
2023-04-18T20:22:59.258Z,21.67
2023-04-18T20:25:25.700Z,23.02
2023-04-18T20:27:52.145Z,21.40
2023-04-18T20:30:19.906Z,22.02
2023-04-18T20:32:46.428Z,23.33
2023-04-18T20:35:12.956Z,23.70
2023-04-18T20:37:39.401Z,24.55
2023-04-18T20:40:07.330Z,24.92
2023-04-18T20:42:33.793Z,26.85
2023-04-18T20:45:00.309Z,23.95
2023-04-18T20:47:28.192Z,22.60
2023-04-18T20:49:54.739Z,26.85
2023-04-18T20:52:21.266Z,23.58
2023-04-18T20:54:53.595Z,23.95
2023-04-18T20:57:22.096Z,21.83
2023-04-18T20:59:50.305Z,20.40
2023-04-18T21:02:21.033Z,22.27
2023-04-18T21:04:51.995Z,22.10
2023-04-18T21:07:20.806Z,19.88
2023-04-18T21:09:53.207Z,21.83
2023-04-18T21:12:19.703Z,20.70
2023-04-18T21:14:50.126Z,23.25
2023-04-18T21:17:22.858Z,22.15
2023-04-18T21:19:51.208Z,20.58
2023-04-18T21:22:17.914Z,20.83
2023-04-18T21:24:44.422Z,20.55
2023-04-18T21:27:13.192Z,21.13
2023-04-18T21:29:40.937Z,18.05
2023-04-18T21:32:07.878Z,21.27
2023-04-18T21:34:34.473Z,19.38
2023-04-18T21:37:02.490Z,19.77
2023-04-18T21:39:28.951Z,18.48
2023-04-18T21:41:55.397Z,16.60
2023-04-18T21:44:21.878Z,15.35
2023-04-18T21:46:48.319Z,16.08
2023-04-18T21:49:16.275Z,16.20
2023-04-18T21:52:01.098Z,14.52
2023-04-18T21:54:29.055Z,13.00
2023-04-18T21:56:55.539Z,13.23
2023-04-18T21:59:21.981Z,16.38
2023-04-18T22:01:49.824Z,12.63
2023-04-18T22:04:16.635Z,12.90
2023-04-18T22:06:43.342Z,13.32
2023-04-18T22:09:09.741Z,13.10
2023-04-18T22:11:37.537Z,12.32
2023-04-18T22:14:04.025Z,13.23
2023-04-18T22:16:30.421Z,11.77
2023-04-18T22:18:56.933Z,11.75
2023-04-18T22:21:23.370Z,13.05
2023-04-18T22:23:51.369Z,10.93
2023-04-18T22:26:21.884Z,10.82
2023-04-18T22:28:51.676Z,13.50
2023-04-18T22:31:20.148Z,9.98
2023-04-18T22:33:46.641Z,12.75
2023-04-18T22:36:13.299Z,8.85
2023-04-18T22:38:39.684Z,11.55
2023-04-18T22:41:06.140Z,11.10
2023-04-18T22:43:32.637Z,10.00
2023-04-18T22:46:00.434Z,9.27
2023-04-18T22:48:26.924Z,9.10
2023-04-18T22:50:53.318Z,10.38
2023-04-18T22:53:19.720Z,8.98
2023-04-18T22:55:47.326Z,10.15
2023-04-18T22:58:23.085Z,10.18
2023-04-18T23:00:50.263Z,10.35
2023-04-18T23:03:21.028Z,9.63
2023-04-18T23:05:49.384Z,8.23
2023-04-18T23:08:21.905Z,9.82
2023-04-18T23:10:51.030Z,8.85
2023-04-18T23:13:23.589Z,8.35
2023-04-18T23:15:51.997Z,7.00
2023-04-18T23:18:19.801Z,7.13
2023-04-18T23:20:46.349Z,7.90
2023-04-18T23:23:12.784Z,8.80
2023-04-18T23:25:39.280Z,7.93
2023-04-18T23:28:05.705Z,9.32
2023-04-18T23:30:35.075Z,9.85
2023-04-18T23:33:01.647Z,8.45
2023-04-18T23:35:29.495Z,8.95
2023-04-18T23:37:55.928Z,7.88
2023-04-18T23:40:22.517Z,8.90
2023-04-18T23:42:48.959Z,7.15
2023-04-18T23:45:15.375Z,7.47
2023-04-18T23:47:49.172Z,8.80
2023-04-18T23:50:16.823Z,9.55
2023-04-18T23:52:54.724Z,7.32
2023-04-18T23:55:21.489Z,9.05
2023-04-18T23:57:49.624Z,8.18
